Time,TemperatureF,DewpointF,PressureIn,WindDirection,WindDirectionDegrees,WindSpeedMPH,WindSpeedGustMPH,Humidity,HourlyPrecipIn,Conditions,Clouds,dailyrainin,SoftwareType,DateUTC
2013-09-15 00:03:00,43.3,41.7,29.92,NW,313,0.0,0.0,94,0.00,,---,0.00,VWS V14.01,2013-09-15 06:03:00,
2013-09-15 00:08:00,43.4,41.8,29.92,NW,313,0.0,0.0,94,0.00,,---,0.00,VWS V14.01,2013-09-15 06:08:00,
2013-09-15 00:13:00,43.5,41.9,29.92,NW,313,0.0,0.0,94,0.00,,---,0.00,VWS V14.01,2013-09-15 06:13:00,
2013-09-15 00:18:00,43.4,41.8,29.92,NW,313,0.0,0.0,94,0.00,,---,0.00,VWS V14.01,2013-09-15 06:18:00,
2013-09-15 00:23:00,43.5,41.9,29.93,NW,313,2.0,3.0,94,0.00,,---,0.00,VWS V14.01,2013-09-15 06:23:00,
2013-09-15 00:28:00,43.4,41.8,29.93,NW,313,0.0,0.0,94,0.00,,---,0.00,VWS V14.01,2013-09-15 06:28:00,
2013-09-15 00:33:00,43.3,41.7,29.93,NW,313,0.0,0.0,94,0.00,,---,0.00,VWS V14.01,2013-09-15 06:33:00,
2013-09-15 00:38:00,43.2,41.6,29.93,NW,313,1.0,1.0,94,0.00,,---,0.00,VWS V14.01,2013-09-15 06:38:00,
2013-09-15 00:43:00,43.2,41.9,29.93,NW,313,0.0,2.0,95,0.00,,---,0.00,VWS V14.01,2013-09-15 06:43:00,
2013-09-15 00:48:00,43.2,41.9,29.93,NW,313,0.0,0.0,95,0.00,,---,0.00,VWS V14.01,2013-09-15 06:48:00,
2013-09-15 00:53:00,43.2,41.9,29.93,NW,313,0.0,0.0,95,0.00,,---,0.00,VWS V14.01,2013-09-15 06:53:00,
2013-09-15 00:58:00,43.3,42.0,29.93,NW,313,0.0,0.0,95,0.00,,---,0.00,VWS V14.01,2013-09-15 06:58:00,
2013-09-15 01:03:00,43.5,42.2,29.93,NW,313,4.0,5.0,95,0.00,,---,0.00,VWS V14.01,2013-09-15 07:03:00,
2013-09-15 01:08:00,43.7,42.4,29.92,NW,313,2.0,3.0,95,0.00,,---,0.00,VWS V14.01,2013-09-15 07:08:00,
2013-09-15 01:13:00,43.8,42.5,29.92,NW,313,0.0,0.0,95,0.00,,---,0.00,VWS V14.01,2013-09-15 07:13:00,
2013-09-15 01:18:00,43.9,42.6,29.92,NW,313,0.0,0.0,95,0.00,,---,0.00,VWS V14.01,2013-09-15 07:18:00,
2013-09-15 01:23:00,43.9,42.6,29.92,NW,313,0.0,0.0,95,0.00,,---,0.00,VWS V14.01,2013-09-15 07:23:00,
2013-09-15 01:28:00,43.9,42.6,29.92,NW,313,0.0,0.0,95,0.00,,---,0.00,VWS V14.01,2013-09-15 07:28:00,
2013-09-15 01:33:00,44.0,42.7,29.92,NW,313,0.0,0.0,95,0.00,,---,0.00,VWS V14.01,2013-09-15 07:33:00,
2013-09-15 01:38:00,44.0,42.7,29.92,NW,313,3.0,3.0,95,0.00,,---,0.00,VWS V14.01,2013-09-15 07:38:00,
2013-09-15 01:43:00,43.9,42.6,29.92,NW,313,0.0,0.0,95,0.00,,---,0.00,VWS V14.01,2013-09-15 07:43:00,
2013-09-15 01:48:00,43.8,42.5,29.92,NW,313,2.0,2.0,95,0.00,,---,0.00,VWS V14.01,2013-09-15 07:48:00,
2013-09-15 01:53:00,43.8,42.5,29.92,NW,313,0.0,0.0,95,0.00,,---,0.00,VWS V14.01,2013-09-15 07:53:00,
2013-09-15 01:58:00,43.7,42.4,29.92,NW,313,0.0,0.0,95,0.00,,---,0.00,VWS V14.01,2013-09-15 07:58:00,
2013-09-15 02:03:00,43.7,42.4,29.92,NW,313,0.0,0.0,95,0.00,,---,0.00,VWS V14.01,2013-09-15 08:03:00,
2013-09-15 02:08:00,43.7,42.4,29.92,NW,313,0.0,0.0,95,0.00,,---,0.00,VWS V14.01,2013-09-15 08:08:00,
2013-09-15 02:13:00,43.6,42.3,29.92,NW,313,0.0,0.0,95,0.00,,---,0.00,VWS V14.01,2013-09-15 08:13:00,
2013-09-15 02:18:00,43.6,42.3,29.92,NW,313,0.0,0.0,95,0.00,,---,0.00,VWS V14.01,2013-09-15 08:18:00,
2013-09-15 02:23:00,43.2,41.9,29.92,NW,313,0.0,0.0,95,0.00,,---,0.00,VWS V14.01,2013-09-15 08:23:00,
2013-09-15 02:28:00,43.1,41.8,29.92,NW,313,0.0,0.0,95,0.00,,---,0.00,VWS V14.01,2013-09-15 08:28:00,
2013-09-15 02:33:00,43.1,41.8,29.92,NW,313,0.0,0.0,95,0.00,,---,0.00,VWS V14.01,2013-09-15 08:33:00,
2013-09-15 02:38:00,43.1,41.8,29.92,NW,313,0.0,0.0,95,0.00,,---,0.00,VWS V14.01,2013-09-15 08:38:00,
2013-09-15 02:43:00,43.1,41.8,29.91,NW,313,0.0,0.0,95,0.00,,---,0.00,VWS V14.01,2013-09-15 08:43:00,
2013-09-15 02:48:00,43.2,41.9,29.92,NW,313,0.0,0.0,95,0.00,,---,0.00,VWS V14.01,2013-09-15 08:48:00,
2013-09-15 02:53:00,43.2,41.9,29.91,NW,313,0.0,0.0,95,0.00,,---,0.00,VWS V14.01,2013-09-15 08:53:00,
2013-09-15 02:58:00,43.1,41.8,29.91,NW,313,0.0,0.0,95,0.00,,---,0.00,VWS V14.01,2013-09-15 08:58:00,
2013-09-15 03:03:00,43.1,41.8,29.91,NW,313,0.0,0.0,95,0.00,,---,0.00,VWS V14.01,2013-09-15 09:03:00,
2013-09-15 03:08:00,43.1,41.8,29.91,NW,313,0.0,0.0,95,0.00,,---,0.00,VWS V14.01,2013-09-15 09:08:00,
2013-09-15 03:13:00,43.0,41.7,29.92,NW,313,0.0,0.0,95,0.00,,---,0.00,VWS V14.01,2013-09-15 09:13:00,
2013-09-15 03:18:00,42.9,41.6,29.92,NW,313,2.0,2.0,95,0.00,,---,0.00,VWS V14.01,2013-09-15 09:18:00,
2013-09-15 03:23:00,43.0,41.9,29.92,NW,313,3.0,3.0,96,0.00,,---,0.00,VWS V14.01,2013-09-15 09:23:00,
2013-09-15 03:28:00,42.9,41.6,29.92,NW,313,0.0,0.0,95,0.00,,---,0.00,VWS V14.01,2013-09-15 09:28:00,
2013-09-15 03:33:00,42.9,41.6,29.92,NW,313,0.0,0.0,95,0.00,,---,0.00,VWS V14.01,2013-09-15 09:33:00,
2013-09-15 03:38:00,42.9,41.6,29.92,NW,313,0.0,0.0,95,0.00,,---,0.00,VWS V14.01,2013-09-15 09:38:00,
2013-09-15 03:43:00,42.7,41.4,29.93,NW,313,0.0,0.0,95,0.00,,---,0.00,VWS V14.01,2013-09-15 09:43:00,
2013-09-15 03:49:00,42.6,41.3,29.93,NW,313,0.0,0.0,95,0.00,,---,0.00,VWS V14.01,2013-09-15 09:49:00,
2013-09-15 03:54:00,42.7,41.4,29.93,NW,313,0.0,0.0,95,0.00,,---,0.00,VWS V14.01,2013-09-15 09:54:00,
2013-09-15 03:59:00,42.7,41.4,29.94,NW,313,0.0,0.0,95,0.00,,---,0.00,VWS V14.01,2013-09-15 09:59:00,
2013-09-15 04:04:00,42.5,41.2,29.94,NW,313,0.0,2.0,95,0.00,,---,0.00,VWS V14.01,2013-09-15 10:04:00,
2013-09-15 04:09:00,42.4,41.1,29.94,NW,313,0.0,0.0,95,0.00,,---,0.00,VWS V14.01,2013-09-15 10:09:00,
2013-09-15 04:14:00,42.4,41.3,29.95,NW,313,0.0,0.0,96,0.00,,---,0.00,VWS V14.01,2013-09-15 10:14:00,
2013-09-15 04:19:00,42.5,41.4,29.95,NW,313,0.0,0.0,96,0.00,,---,0.00,VWS V14.01,2013-09-15 10:19:00,
2013-09-15 04:24:00,42.5,41.4,29.95,NW,313,0.0,0.0,96,0.00,,---,0.00,VWS V14.01,2013-09-15 10:24:00,
2013-09-15 04:29:00,42.6,41.5,29.95,NW,313,2.0,2.0,96,0.00,,---,0.00,VWS V14.01,2013-09-15 10:29:00,
2013-09-15 04:34:00,42.7,41.6,29.95,NW,313,3.0,3.0,96,0.00,,---,0.00,VWS V14.01,2013-09-15 10:34:00,
2013-09-15 04:39:00,42.9,41.8,29.95,NW,313,0.0,0.0,96,0.00,,---,0.00,VWS V14.01,2013-09-15 10:39:00,
2013-09-15 04:44:00,43.0,41.9,29.95,NW,313,0.0,1.0,96,0.00,,---,0.00,VWS V14.01,2013-09-15 10:44:00,
2013-09-15 04:49:00,43.2,42.1,29.95,NW,313,0.0,1.0,96,0.00,,---,0.00,VWS V14.01,2013-09-15 10:49:00,
2013-09-15 04:54:00,43.2,42.1,29.95,NW,313,0.0,0.0,96,0.00,,---,0.00,VWS V14.01,2013-09-15 10:54:00,
2013-09-15 04:59:00,43.3,42.2,29.95,NW,313,0.0,0.0,96,0.00,,---,0.00,VWS V14.01,2013-09-15 10:59:00,
2013-09-15 05:04:00,43.3,42.2,29.95,NW,313,0.0,0.0,96,0.00,,---,0.00,VWS V14.01,2013-09-15 11:04:00,
2013-09-15 05:09:00,43.4,42.3,29.95,NW,313,0.0,0.0,96,0.00,,---,0.00,VWS V14.01,2013-09-15 11:09:00,
2013-09-15 05:14:00,43.4,42.3,29.95,NW,313,0.0,0.0,96,0.00,,---,0.00,VWS V14.01,2013-09-15 11:14:00,
2013-09-15 05:19:00,43.3,42.2,29.95,NW,313,1.0,1.0,96,0.00,,---,0.00,VWS V14.01,2013-09-15 11:19:00,
2013-09-15 05:24:00,43.1,42.0,29.96,NW,313,0.0,0.0,96,0.00,,---,0.00,VWS V14.01,2013-09-15 11:24:00,
2013-09-15 05:29:00,43.1,42.0,29.96,NW,313,1.0,1.0,96,0.00,,---,0.00,VWS V14.01,2013-09-15 11:29:00,
2013-09-15 05:34:00,43.0,41.9,29.96,NW,313,1.0,2.0,96,0.00,,---,0.00,VWS V14.01,2013-09-15 11:34:00,
2013-09-15 05:39:00,43.0,41.9,29.96,NW,313,0.0,0.0,96,0.00,,---,0.00,VWS V14.01,2013-09-15 11:39:00,
2013-09-15 05:44:00,42.9,41.8,29.96,NW,313,0.0,0.0,96,0.00,,---,0.00,VWS V14.01,2013-09-15 11:44:00,
2013-09-15 05:49:00,43.0,41.9,29.96,NW,313,0.0,0.0,96,0.00,,---,0.00,VWS V14.01,2013-09-15 11:49:00,
2013-09-15 05:54:00,43.0,41.9,29.96,NW,313,0.0,0.0,96,0.00,,---,0.00,VWS V14.01,2013-09-15 11:54:00,
2013-09-15 05:59:00,43.0,41.9,29.96,NW,313,0.0,0.0,96,0.00,,---,0.00,VWS V14.01,2013-09-15 11:59:00,
2013-09-15 06:04:00,43.1,42.0,29.96,NW,313,0.0,0.0,96,0.00,,---,0.00,VWS V14.01,2013-09-15 12:04:00,
2013-09-15 06:09:00,43.1,42.0,29.97,NW,313,0.0,0.0,96,0.00,,---,0.00,VWS V14.01,2013-09-15 12:09:00,
2013-09-15 06:14:00,43.1,42.0,29.97,NW,313,2.0,2.0,96,0.00,,---,0.00,VWS V14.01,2013-09-15 12:14:00,
2013-09-15 06:19:00,43.3,42.2,29.97,NW,313,0.0,0.0,96,0.00,,---,0.00,VWS V14.01,2013-09-15 12:19:00,
2013-09-15 06:24:00,43.3,42.2,29.97,NW,313,0.0,0.0,96,0.00,,---,0.00,VWS V14.01,2013-09-15 12:24:00,
2013-09-15 06:29:00,43.4,42.3,29.97,NW,313,0.0,0.0,96,0.00,,---,0.00,VWS V14.01,2013-09-15 12:29:00,
2013-09-15 06:34:00,43.5,42.4,29.97,NW,313,0.0,0.0,96,0.00,,---,0.00,VWS V14.01,2013-09-15 12:34:00,
2013-09-15 06:39:00,43.5,42.4,29.97,NW,313,0.0,0.0,96,0.00,,---,0.00,VWS V14.01,2013-09-15 12:39:00,
2013-09-15 06:44:00,43.5,42.4,29.97,NW,313,0.0,0.0,96,0.00,,---,0.00,VWS V14.01,2013-09-15 12:44:00,
2013-09-15 06:49:00,43.5,42.4,29.97,NW,313,0.0,0.0,96,0.00,,---,0.00,VWS V14.01,2013-09-15 12:49:00,
2013-09-15 06:54:00,43.5,42.4,29.98,NW,313,0.0,0.0,96,0.00,,---,0.00,VWS V14.01,2013-09-15 12:54:00,
2013-09-15 06:59:00,43.5,42.4,29.98,NW,313,0.0,0.0,96,0.00,,---,0.00,VWS V14.01,2013-09-15 12:59:00,
2013-09-15 07:04:00,43.5,42.4,29.98,NW,313,1.0,2.0,96,0.00,,---,0.00,VWS V14.01,2013-09-15 13:04:00,
2013-09-15 07:09:00,43.6,42.5,29.98,NW,313,1.0,1.0,96,0.00,,---,0.00,VWS V14.01,2013-09-15 13:09:00,
2013-09-15 07:14:00,43.6,42.5,29.98,NW,313,0.0,0.0,96,0.00,,---,0.00,VWS V14.01,2013-09-15 13:14:00,
2013-09-15 07:19:00,43.6,42.5,29.98,NW,313,0.0,0.0,96,0.00,,---,0.00,VWS V14.01,2013-09-15 13:19:00,
2013-09-15 07:24:00,43.6,42.5,29.98,NW,313,0.0,0.0,96,0.00,,---,0.00,VWS V14.01,2013-09-15 13:24:00,
2013-09-15 07:29:00,43.6,42.5,29.99,NW,313,0.0,0.0,96,0.00,,---,0.00,VWS V14.01,2013-09-15 13:29:00,
2013-09-15 07:34:00,43.7,42.6,29.99,NW,313,0.0,0.0,96,0.00,,---,0.00,VWS V14.01,2013-09-15 13:34:00,
2013-09-15 07:39:00,43.7,42.6,29.99,NW,313,0.0,0.0,96,0.00,,---,0.00,VWS V14.01,2013-09-15 13:39:00,
2013-09-15 07:45:00,43.7,42.6,29.99,NW,313,0.0,0.0,96,0.00,,---,0.00,VWS V14.01,2013-09-15 13:45:00,
2013-09-15 07:50:00,43.8,42.7,29.99,NW,313,0.0,0.0,96,0.00,,---,0.00,VWS V14.01,2013-09-15 13:50:00,
2013-09-15 07:55:00,43.8,42.7,29.99,NW,313,0.0,0.0,96,0.00,,---,0.00,VWS V14.01,2013-09-15 13:55:00,
2013-09-15 08:00:00,44.0,42.9,29.99,NW,313,0.0,0.0,96,0.00,,---,0.00,VWS V14.01,2013-09-15 14:00:00,
2013-09-15 08:05:00,44.3,43.2,29.99,NW,313,0.0,0.0,96,0.00,,---,0.00,VWS V14.01,2013-09-15 14:05:00,
2013-09-15 08:10:00,44.7,43.6,29.99,NW,313,0.0,0.0,96,0.00,,---,0.00,VWS V14.01,2013-09-15 14:10:00,
2013-09-15 08:15:00,45.4,44.3,30.00,NW,313,0.0,0.0,96,0.00,,---,0.00,VWS V14.01,2013-09-15 14:15:00,
2013-09-15 08:20:00,45.2,43.9,29.99,NW,313,0.0,0.0,95,0.00,,---,0.00,VWS V14.01,2013-09-15 14:20:00,
2013-09-15 08:25:00,45.4,44.0,29.99,NW,313,0.0,0.0,95,0.00,,---,0.00,VWS V14.01,2013-09-15 14:25:00,
2013-09-15 08:30:00,45.5,44.2,29.99,NW,313,0.0,0.0,95,0.00,,---,0.00,VWS V14.01,2013-09-15 14:30:00,
2013-09-15 08:35:00,45.9,44.3,30.00,NW,313,0.0,0.0,94,0.00,,---,0.00,VWS V14.01,2013-09-15 14:35:00,
2013-09-15 08:40:00,46.1,44.5,29.99,NW,313,0.0,0.0,94,0.00,,---,0.00,VWS V14.01,2013-09-15 14:40:00,
2013-09-15 08:45:00,46.2,44.6,29.99,NW,313,0.0,0.0,94,0.00,,---,0.00,VWS V14.01,2013-09-15 14:45:00,
2013-09-15 08:50:00,46.0,44.1,29.99,NW,313,0.0,0.0,93,0.00,,---,0.00,VWS V14.01,2013-09-15 14:50:00,
2013-09-15 08:55:00,46.2,44.3,29.99,NW,313,0.0,0.0,93,0.00,,---,0.00,VWS V14.01,2013-09-15 14:55:00,
2013-09-15 09:00:00,46.6,44.7,30.00,NW,313,0.0,0.0,93,0.00,,---,0.00,VWS V14.01,2013-09-15 15:00:00,
2013-09-15 09:05:00,47.3,45.4,30.00,NW,313,0.0,0.0,93,0.00,,---,0.00,VWS V14.01,2013-09-15 15:05:00,
2013-09-15 09:10:00,47.1,44.9,30.00,NW,313,0.0,0.0,92,0.00,,---,0.00,VWS V14.01,2013-09-15 15:10:00,
2013-09-15 09:15:00,48.5,46.3,30.00,NW,313,0.0,0.0,92,0.00,,---,0.00,VWS V14.01,2013-09-15 15:15:00,
2013-09-15 09:20:00,49.7,46.6,30.00,NW,313,2.0,3.0,89,0.00,,---,0.00,VWS V14.01,2013-09-15 15:20:00,
2013-09-15 09:25:00,49.5,45.5,30.00,NW,313,1.0,1.0,86,0.00,,---,0.00,VWS V14.01,2013-09-15 15:25:00,
2013-09-15 09:30:00,50.3,46.0,30.00,NW,313,3.0,4.0,85,0.00,,---,0.00,VWS V14.01,2013-09-15 15:30:00,
2013-09-15 09:35:00,51.4,46.7,30.00,NW,313,1.0,1.0,84,0.00,,---,0.00,VWS V14.01,2013-09-15 15:35:00,
2013-09-15 09:40:00,51.9,45.9,30.00,NW,313,5.0,5.0,80,0.00,,---,0.00,VWS V14.01,2013-09-15 15:40:00,
2013-09-15 09:45:00,52.1,45.1,30.00,NW,313,0.0,3.0,77,0.00,,---,0.00,VWS V14.01,2013-09-15 15:45:00,
2013-09-15 09:51:00,52.8,46.5,30.00,SSE,157,7.0,7.0,79,0.00,,---,0.00,VWS V14.01,2013-09-15 15:51:00,
2013-09-15 09:56:00,51.5,45.5,30.00,SSE,157,3.0,4.0,80,0.00,,---,0.00,VWS V14.01,2013-09-15 15:56:00,
2013-09-15 10:01:00,51.4,46.1,30.00,SSE,157,0.0,2.0,82,0.00,,---,0.00,VWS V14.01,2013-09-15 16:01:00,
2013-09-15 10:06:00,50.9,45.3,30.00,SSE,157,0.0,0.0,81,0.00,,---,0.00,VWS V14.01,2013-09-15 16:06:00,
2013-09-15 10:11:00,51.4,46.1,30.00,SE,144,0.0,0.0,82,0.00,,---,0.00,VWS V14.01,2013-09-15 16:11:00,
2013-09-15 10:16:00,51.4,45.8,30.00,SSE,155,2.0,4.0,81,0.00,,---,0.00,VWS V14.01,2013-09-15 16:16:00,
2013-09-15 10:21:00,51.4,45.5,30.00,SSE,157,3.0,4.0,80,0.00,,---,0.00,VWS V14.01,2013-09-15 16:21:00,
2013-09-15 10:26:00,51.2,45.2,30.00,SSE,157,0.0,0.0,80,0.00,,---,0.00,VWS V14.01,2013-09-15 16:26:00,
2013-09-15 10:31:00,51.4,46.1,30.00,SSE,157,0.0,0.0,82,0.00,,---,0.00,VWS V14.01,2013-09-15 16:31:00,
2013-09-15 10:36:00,51.5,45.5,30.00,SSE,157,0.0,0.0,80,0.00,,---,0.00,VWS V14.01,2013-09-15 16:36:00,
2013-09-15 10:41:00,51.9,45.9,30.00,SSE,157,0.0,0.0,80,0.00,,---,0.00,VWS V14.01,2013-09-15 16:41:00,
2013-09-15 10:46:00,51.9,45.9,30.00,SSE,157,0.0,0.0,80,0.00,,---,0.00,VWS V14.01,2013-09-15 16:46:00,
2013-09-15 10:51:00,52.3,46.0,30.00,SSE,157,0.0,0.0,79,0.00,,---,0.00,VWS V14.01,2013-09-15 16:51:00,
2013-09-15 10:56:00,53.0,47.0,30.00,SW,223,4.0,4.0,80,0.00,,---,0.00,VWS V14.01,2013-09-15 16:56:00,
2013-09-15 11:01:00,52.7,45.7,30.00,SW,223,0.0,2.0,77,0.00,,---,0.00,VWS V14.01,2013-09-15 17:01:00,
2013-09-15 11:06:00,53.3,45.9,30.00,SW,223,2.0,4.0,76,0.00,,---,0.00,VWS V14.01,2013-09-15 17:06:00,
2013-09-15 11:11:00,53.8,46.1,30.00,SW,223,0.0,0.0,75,0.00,,---,0.00,VWS V14.01,2013-09-15 17:11:00,
2013-09-15 11:16:00,54.6,45.8,30.00,SW,223,0.0,0.0,72,0.00,,---,0.00,VWS V14.01,2013-09-15 17:16:00,
2013-09-15 11:21:00,55.0,47.2,30.00,SW,223,1.0,4.0,75,0.00,,---,0.00,VWS V14.01,2013-09-15 17:21:00,
2013-09-15 11:26:00,56.0,47.8,30.00,SW,223,1.0,2.0,74,0.00,,---,0.00,VWS V14.01,2013-09-15 17:26:00,
2013-09-15 11:31:00,55.7,44.5,30.00,SW,223,0.0,0.0,66,0.00,,---,0.00,VWS V14.01,2013-09-15 17:31:00,
2013-09-15 11:36:00,55.5,43.9,30.00,SW,221,1.0,1.0,65,0.00,,---,0.00,VWS V14.01,2013-09-15 17:36:00,
2013-09-15 11:41:00,56.8,45.2,30.00,ENE,74,0.0,1.0,65,0.00,,---,0.00,VWS V14.01,2013-09-15 17:41:00,
2013-09-15 11:46:00,56.6,45.4,30.00,ENE,77,2.0,2.0,66,0.00,,---,0.00,VWS V14.01,2013-09-15 17:46:00,
2013-09-15 11:51:00,56.3,43.9,30.00,South,186,0.0,2.0,63,0.00,,---,0.00,VWS V14.01,2013-09-15 17:51:00,
2013-09-15 11:56:00,55.7,44.1,29.99,SSE,166,0.0,0.0,65,0.00,,---,0.00,VWS V14.01,2013-09-15 17:56:00,
2013-09-15 12:01:00,55.7,44.1,30.00,SSE,166,0.0,0.0,65,0.00,,---,0.00,VWS V14.01,2013-09-15 18:01:00,
2013-09-15 12:06:00,55.7,44.5,29.99,SSE,151,0.0,0.0,66,0.00,,---,0.00,VWS V14.01,2013-09-15 18:06:00,
2013-09-15 12:11:00,56.4,45.6,29.99,SSE,151,0.0,0.0,67,0.00,,---,0.00,VWS V14.01,2013-09-15 18:11:00,
2013-09-15 12:16:00,56.1,44.9,29.99,SSE,167,3.0,3.0,66,0.00,,---,0.00,VWS V14.01,2013-09-15 18:16:00,
2013-09-15 12:21:00,56.0,44.0,29.99,SSE,167,0.0,0.0,64,0.00,,---,0.00,VWS V14.01,2013-09-15 18:21:00,
2013-09-15 12:26:00,56.1,44.5,29.98,SSE,167,0.0,1.0,65,0.00,,---,0.00,VWS V14.01,2013-09-15 18:26:00,
2013-09-15 12:31:00,57.4,47.3,29.98,SSE,167,0.0,0.0,69,0.00,,---,0.00,VWS V14.01,2013-09-15 18:31:00,
2013-09-15 12:36:00,57.1,45.0,29.98,SSE,167,0.0,2.0,64,0.00,,---,0.00,VWS V14.01,2013-09-15 18:36:00,
2013-09-15 12:41:00,56.6,46.9,29.98,SSE,167,0.0,0.0,70,0.00,,---,0.00,VWS V14.01,2013-09-15 18:41:00,
2013-09-15 12:46:00,56.9,45.7,29.98,SSE,167,0.0,0.0,66,0.00,,---,0.00,VWS V14.01,2013-09-15 18:46:00,
2013-09-15 12:52:00,56.8,44.8,29.98,SSE,163,0.0,0.0,64,0.00,,---,0.00,VWS V14.01,2013-09-15 18:52:00,
2013-09-15 12:57:00,57.0,45.4,29.97,ESE,103,0.0,2.0,65,0.00,,---,0.00,VWS V14.01,2013-09-15 18:57:00,
2013-09-15 13:02:00,56.8,44.8,29.97,SE,134,0.0,2.0,64,0.00,,---,0.00,VWS V14.01,2013-09-15 19:02:00,
2013-09-15 13:07:00,56.7,45.1,29.97,SE,132,3.0,3.0,65,0.00,,---,0.00,VWS V14.01,2013-09-15 19:07:00,
2013-09-15 13:12:00,56.9,44.9,29.97,SE,132,4.0,4.0,64,0.00,,---,0.00,VWS V14.01,2013-09-15 19:12:00,
2013-09-15 13:17:00,56.3,45.1,29.97,East,93,2.0,7.0,66,0.00,,---,0.00,VWS V14.01,2013-09-15 19:17:00,
2013-09-15 13:18:00,56.1,46.5,29.97,East,94,5.0,5.0,70,0.00,,---,0.00,VWS V14.01,2013-09-15 19:18:00,
2013-09-15 13:23:00,56.9,48.3,29.97,East,93,1.0,2.0,73,0.00,,---,0.00,VWS V14.01,2013-09-15 19:23:00,
2013-09-15 13:28:00,57.5,47.4,29.96,SE,132,3.0,3.0,69,0.00,,---,0.00,VWS V14.01,2013-09-15 19:28:00,
2013-09-15 13:33:00,57.6,46.7,29.96,ESE,114,0.0,0.0,67,0.00,,---,0.00,VWS V14.01,2013-09-15 19:33:00,
2013-09-15 13:38:00,58.6,43.4,29.96,ENE,63,0.0,0.0,57,0.00,,---,0.00,VWS V14.01,2013-09-15 19:38:00,
2013-09-15 13:43:00,60.8,46.4,29.95,ESE,119,5.0,5.0,59,0.00,,---,0.00,VWS V14.01,2013-09-15 19:43:00,
2013-09-15 13:48:00,60.8,44.5,29.95,SSE,161,3.0,4.0,55,0.00,,---,0.00,VWS V14.01,2013-09-15 19:48:00,
2013-09-15 13:53:00,62.5,45.7,29.95,South,185,6.0,7.0,54,0.00,,---,0.00,VWS V14.01,2013-09-15 19:53:00,
2013-09-15 13:58:00,61.2,43.5,29.95,ESE,109,1.0,3.0,52,0.00,,---,0.00,VWS V14.01,2013-09-15 19:58:00,
2013-09-15 14:03:00,60.5,45.7,29.95,ESE,111,4.0,6.0,58,0.00,,---,0.00,VWS V14.01,2013-09-15 20:03:00,
2013-09-15 14:08:00,59.4,44.2,29.95,ESE,116,5.0,8.0,57,0.00,,---,0.00,VWS V14.01,2013-09-15 20:08:00,
2013-09-15 14:13:00,59.0,45.6,29.94,East,97,6.0,9.0,61,0.00,,---,0.00,VWS V14.01,2013-09-15 20:13:00,
2013-09-15 14:18:00,58.5,45.1,29.94,ESE,106,7.0,13.0,61,0.00,,---,0.00,VWS V14.01,2013-09-15 20:18:00,
2013-09-15 14:23:00,58.0,45.1,29.95,East,99,6.0,10.0,62,0.00,,---,0.00,VWS V14.01,2013-09-15 20:23:00,
2013-09-15 14:28:00,57.2,45.2,29.95,SSE,161,7.0,12.0,64,0.00,,---,0.00,VWS V14.01,2013-09-15 20:28:00,
2013-09-15 14:33:00,56.4,43.6,29.95,SSW,192,11.0,13.0,62,0.00,,---,0.00,VWS V14.01,2013-09-15 20:33:00,
2013-09-15 14:38:00,55.7,43.7,29.95,SW,226,9.0,14.0,64,0.00,,---,0.00,VWS V14.01,2013-09-15 20:38:00,
2013-09-15 14:43:00,55.5,43.9,29.96,SSW,192,8.0,8.0,65,0.00,,---,0.00,VWS V14.01,2013-09-15 20:43:00,
2013-09-15 14:48:00,54.8,44.5,29.96,WSW,248,5.0,6.0,68,0.00,,---,0.00,VWS V14.01,2013-09-15 20:48:00,
2013-09-15 14:53:00,54.3,44.0,29.96,SW,231,10.0,10.0,68,0.00,,---,0.00,VWS V14.01,2013-09-15 20:53:00,
2013-09-15 14:58:00,53.7,43.0,29.96,WSW,238,16.0,18.0,67,0.01,,---,0.01,VWS V14.01,2013-09-15 20:58:00,
2013-09-15 15:03:00,53.1,43.2,29.97,WSW,246,17.0,17.0,69,0.01,,---,0.01,VWS V14.01,2013-09-15 21:03:00,
2013-09-15 15:08:00,52.4,43.3,29.98,SSW,207,5.0,7.0,71,0.01,,---,0.01,VWS V14.01,2013-09-15 21:08:00,
2013-09-15 15:13:00,52.2,43.5,29.98,WSW,257,10.0,10.0,72,0.01,,---,0.01,VWS V14.01,2013-09-15 21:13:00,
2013-09-15 15:18:00,52.3,43.9,29.98,West,259,1.0,1.0,73,0.01,,---,0.01,VWS V14.01,2013-09-15 21:18:00,
2013-09-15 15:23:00,52.4,44.0,29.99,West,259,5.0,5.0,73,0.01,,---,0.01,VWS V14.01,2013-09-15 21:23:00,
2013-09-15 15:28:00,52.1,44.8,29.99,West,263,5.0,6.0,76,0.01,,---,0.01,VWS V14.01,2013-09-15 21:28:00,
2013-09-15 15:33:00,51.7,45.1,29.99,NW,308,6.0,7.0,78,0.02,,---,0.02,VWS V14.01,2013-09-15 21:33:00,
2013-09-15 15:38:00,51.2,45.2,29.99,WNW,303,6.0,7.0,80,0.02,,---,0.02,VWS V14.01,2013-09-15 21:38:00,
2013-09-15 15:43:00,50.7,45.1,29.99,NW,313,5.0,5.0,81,0.03,,---,0.03,VWS V14.01,2013-09-15 21:43:00,
2013-09-15 15:48:00,50.3,45.3,29.99,NW,323,7.0,7.0,83,0.03,,---,0.03,VWS V14.01,2013-09-15 21:48:00,
2013-09-15 15:53:00,49.9,45.3,29.99,North,351,9.0,9.0,84,0.03,,---,0.03,VWS V14.01,2013-09-15 21:53:00,
2013-09-15 15:58:00,49.5,45.2,29.99,NNW,338,11.0,11.0,85,0.04,,---,0.05,VWS V14.01,2013-09-15 21:58:00,
2013-09-15 16:03:00,49.2,45.2,29.99,NW,311,10.0,10.0,86,0.04,,---,0.05,VWS V14.01,2013-09-15 22:03:00,
2013-09-15 16:08:00,49.0,44.7,29.99,NW,312,8.0,9.0,85,0.04,,---,0.05,VWS V14.01,2013-09-15 22:08:00,
2013-09-15 16:13:00,49.0,45.0,30.00,NW,310,6.0,8.0,86,0.05,,---,0.06,VWS V14.01,2013-09-15 22:13:00,
2013-09-15 16:18:00,49.0,45.3,30.00,NW,309,0.0,1.0,87,0.05,,---,0.06,VWS V14.01,2013-09-15 22:18:00,
2013-09-15 16:23:00,49.0,45.6,30.00,NNW,338,8.0,8.0,88,0.07,,---,0.08,VWS V14.01,2013-09-15 22:23:00,
2013-09-15 16:29:00,48.7,45.3,30.00,North,355,4.0,6.0,88,0.07,,---,0.08,VWS V14.01,2013-09-15 22:29:00,
2013-09-15 16:34:00,48.6,45.2,30.00,North,355,7.0,7.0,88,0.07,,---,0.08,VWS V14.01,2013-09-15 22:34:00,
2013-09-15 16:39:00,49.1,45.7,30.00,North,355,5.0,7.0,88,0.06,,---,0.08,VWS V14.01,2013-09-15 22:39:00,
2013-09-15 16:44:00,49.5,46.1,30.00,NNW,339,7.0,8.0,88,0.07,,---,0.09,VWS V14.01,2013-09-15 22:44:00,
2013-09-15 16:49:00,49.8,46.7,30.01,NNW,330,4.0,5.0,89,0.06,,---,0.09,VWS V14.01,2013-09-15 22:49:00,
2013-09-15 16:54:00,50.0,46.6,30.01,NW,324,5.0,5.0,88,0.06,,---,0.09,VWS V14.01,2013-09-15 22:54:00,
2013-09-15 16:59:00,50.0,46.6,30.01,NNW,331,3.0,4.0,88,0.05,,---,0.09,VWS V14.01,2013-09-15 22:59:00,
2013-09-15 17:04:00,49.9,45.9,30.01,North,9,3.0,5.0,86,0.04,,---,0.09,VWS V14.01,2013-09-15 23:04:00,
2013-09-15 17:09:00,50.0,46.6,30.01,North,9,0.0,2.0,88,0.04,,---,0.09,VWS V14.01,2013-09-15 23:09:00,
2013-09-15 17:14:00,50.1,46.7,30.02,North,5,3.0,4.0,88,0.03,,---,0.09,VWS V14.01,2013-09-15 23:14:00,
2013-09-15 17:19:00,50.0,46.6,30.02,North,355,4.0,5.0,88,0.03,,---,0.09,VWS V14.01,2013-09-15 23:19:00,
2013-09-15 17:24:00,49.9,46.5,30.02,WNW,302,4.0,5.0,88,0.01,,---,0.09,VWS V14.01,2013-09-15 23:24:00,
2013-09-15 17:29:00,49.7,46.3,30.02,WNW,302,8.0,10.0,88,0.02,,---,0.10,VWS V14.01,2013-09-15 23:29:00,
2013-09-15 17:34:00,49.4,46.0,30.02,NW,314,6.0,7.0,88,0.04,,---,0.12,VWS V14.01,2013-09-15 23:34:00,
2013-09-15 17:39:00,49.2,46.1,30.02,NW,317,2.0,3.0,89,0.05,,---,0.13,VWS V14.01,2013-09-15 23:39:00,
2013-09-15 17:44:00,49.0,45.9,30.03,NW,317,1.0,4.0,89,0.04,,---,0.13,VWS V14.01,2013-09-15 23:44:00,
2013-09-15 17:49:00,48.9,45.5,30.03,NW,317,2.0,3.0,88,0.04,,---,0.13,VWS V14.01,2013-09-15 23:49:00,
2013-09-15 17:54:00,48.9,46.1,30.03,NW,311,5.0,5.0,90,0.05,,---,0.14,VWS V14.01,2013-09-15 23:54:00,
2013-09-15 17:59:00,48.8,46.0,30.03,NW,306,5.0,5.0,90,0.05,,---,0.14,VWS V14.01,2013-09-15 23:59:00,
2013-09-15 18:04:00,48.6,46.1,30.03,WNW,302,4.0,5.0,91,0.05,,---,0.14,VWS V14.01,2013-09-16 00:04:00,
2013-09-15 18:09:00,48.4,45.9,30.03,WNW,302,0.0,3.0,91,0.05,,---,0.14,VWS V14.01,2013-09-16 00:09:00,
2013-09-15 18:14:00,48.3,45.8,30.03,WNW,302,4.0,4.0,91,0.06,,---,0.15,VWS V14.01,2013-09-16 00:14:00,
2013-09-15 18:19:00,48.1,45.3,30.03,NNW,331,7.0,7.0,90,0.07,,---,0.16,VWS V14.01,2013-09-16 00:19:00,
2013-09-15 18:24:00,48.0,45.2,30.03,NNW,335,6.0,6.0,90,0.07,,---,0.16,VWS V14.01,2013-09-16 00:24:00,
2013-09-15 18:29:00,47.9,45.1,30.03,NNW,348,6.0,7.0,90,0.07,,---,0.17,VWS V14.01,2013-09-16 00:29:00,
2013-09-15 18:34:00,47.8,45.0,30.03,North,360,7.0,7.0,90,0.06,,---,0.18,VWS V14.01,2013-09-16 00:34:00,
2013-09-15 18:39:00,47.9,45.4,30.03,NNW,341,0.0,4.0,91,0.06,,---,0.18,VWS V14.01,2013-09-16 00:39:00,
2013-09-15 18:44:00,48.0,45.5,30.03,NNW,341,0.0,1.0,91,0.05,,---,0.18,VWS V14.01,2013-09-16 00:44:00,
2013-09-15 18:49:00,48.1,45.6,30.03,NNW,341,6.0,6.0,91,0.05,,---,0.18,VWS V14.01,2013-09-16 00:49:00,
2013-09-15 18:54:00,48.1,45.6,30.03,NNW,341,0.0,0.0,91,0.04,,---,0.18,VWS V14.01,2013-09-16 00:54:00,
2013-09-15 18:59:00,48.2,45.7,30.03,NNW,341,0.0,0.0,91,0.04,,---,0.18,VWS V14.01,2013-09-16 00:59:00,
2013-09-15 19:04:00,48.3,46.1,30.03,NNW,341,0.0,0.0,92,0.04,,---,0.18,VWS V14.01,2013-09-16 01:04:00,
2013-09-15 19:09:00,48.3,46.1,30.03,NNW,341,0.0,0.0,92,0.04,,---,0.18,VWS V14.01,2013-09-16 01:09:00,
2013-09-15 19:14:00,48.2,45.7,30.03,NNW,341,2.0,2.0,91,0.03,,---,0.18,VWS V14.01,2013-09-16 01:14:00,
2013-09-15 19:19:00,48.0,45.5,30.03,WNW,302,4.0,4.0,91,0.02,,---,0.18,VWS V14.01,2013-09-16 01:19:00,
2013-09-15 19:24:00,47.9,45.7,30.03,WNW,302,0.0,0.0,92,0.02,,---,0.18,VWS V14.01,2013-09-16 01:24:00,
2013-09-15 19:29:00,47.7,45.5,30.04,WNW,302,0.0,0.0,92,0.01,,---,0.18,VWS V14.01,2013-09-16 01:29:00,
2013-09-15 19:34:00,47.7,45.5,30.04,WNW,302,0.0,0.0,92,0.00,,---,0.18,VWS V14.01,2013-09-16 01:34:00,
2013-09-15 19:39:00,47.6,45.4,30.04,WNW,302,0.0,0.0,92,0.00,,---,0.18,VWS V14.01,2013-09-16 01:39:00,
2013-09-15 19:44:00,47.5,45.3,30.04,WNW,302,0.0,0.0,92,0.00,,---,0.18,VWS V14.01,2013-09-16 01:44:00,
2013-09-15 19:49:00,47.4,45.2,30.04,WNW,302,0.0,0.0,92,0.00,,---,0.18,VWS V14.01,2013-09-16 01:49:00,
2013-09-15 19:54:00,47.2,45.0,30.04,WNW,302,0.0,0.0,92,0.00,,---,0.18,VWS V14.01,2013-09-16 01:54:00,
2013-09-15 19:59:00,47.0,44.8,30.04,WNW,302,0.0,0.0,92,0.00,,---,0.18,VWS V14.01,2013-09-16 01:59:00,
2013-09-15 20:04:00,46.9,45.0,30.04,WNW,302,0.0,0.0,93,0.00,,---,0.18,VWS V14.01,2013-09-16 02:04:00,
2013-09-15 20:09:00,46.8,44.9,30.05,WNW,302,0.0,0.0,93,0.00,,---,0.18,VWS V14.01,2013-09-16 02:09:00,
2013-09-15 20:14:00,46.8,44.9,30.05,WNW,302,0.0,0.0,93,0.00,,---,0.18,VWS V14.01,2013-09-16 02:14:00,
2013-09-15 20:19:00,46.7,44.8,30.05,WNW,302,0.0,0.0,93,0.00,,---,0.18,VWS V14.01,2013-09-16 02:19:00,
2013-09-15 20:24:00,46.7,44.8,30.06,WNW,302,0.0,0.0,93,0.00,,---,0.18,VWS V14.01,2013-09-16 02:24:00,
2013-09-15 20:29:00,46.6,44.7,30.05,WNW,302,0.0,0.0,93,0.00,,---,0.18,VWS V14.01,2013-09-16 02:29:00,
2013-09-15 20:34:00,46.5,44.9,30.06,WNW,302,0.0,0.0,94,0.00,,---,0.18,VWS V14.01,2013-09-16 02:34:00,
2013-09-15 20:39:00,46.4,44.8,30.06,WNW,302,0.0,0.0,94,0.00,,---,0.18,VWS V14.01,2013-09-16 02:39:00,
2013-09-15 20:44:00,46.4,44.8,30.06,WNW,302,0.0,0.0,94,0.00,,---,0.18,VWS V14.01,2013-09-16 02:44:00,
2013-09-15 20:49:00,46.3,44.7,30.06,WNW,302,0.0,0.0,94,0.00,,---,0.18,VWS V14.01,2013-09-16 02:49:00,
2013-09-15 20:54:00,46.3,44.7,30.06,WNW,302,0.0,0.0,94,0.00,,---,0.18,VWS V14.01,2013-09-16 02:54:00,
2013-09-15 20:59:00,46.4,44.8,30.06,WNW,302,0.0,0.0,94,0.00,,---,0.18,VWS V14.01,2013-09-16 02:59:00,
2013-09-15 21:04:00,46.1,44.2,30.06,WNW,302,4.0,4.0,93,0.00,,---,0.18,VWS V14.01,2013-09-16 03:04:00,
2013-09-15 21:09:00,45.6,43.7,30.06,WNW,302,3.0,4.0,93,0.00,,---,0.18,VWS V14.01,2013-09-16 03:09:00,
2013-09-15 21:14:00,45.1,43.2,30.06,WNW,302,5.0,5.0,93,0.00,,---,0.18,VWS V14.01,2013-09-16 03:14:00,
2013-09-15 21:19:00,44.7,42.8,30.06,NW,315,7.0,7.0,93,0.00,,---,0.18,VWS V14.01,2013-09-16 03:19:00,
2013-09-15 21:25:00,44.4,42.5,30.06,NW,320,6.0,6.0,93,0.00,,---,0.18,VWS V14.01,2013-09-16 03:25:00,
2013-09-15 21:30:00,44.2,42.3,30.06,NW,320,6.0,6.0,93,0.00,,---,0.18,VWS V14.01,2013-09-16 03:30:00,
2013-09-15 21:35:00,44.0,42.1,30.06,NW,320,5.0,5.0,93,0.00,,---,0.18,VWS V14.01,2013-09-16 03:35:00,
2013-09-15 21:40:00,43.8,41.9,30.06,NW,320,2.0,3.0,93,0.00,,---,0.18,VWS V14.01,2013-09-16 03:40:00,
2013-09-15 21:45:00,43.8,42.2,30.06,NW,320,2.0,2.0,94,0.00,,---,0.18,VWS V14.01,2013-09-16 03:45:00,
2013-09-15 21:50:00,43.9,42.3,30.07,NW,320,0.0,0.0,94,0.00,,---,0.18,VWS V14.01,2013-09-16 03:50:00,
2013-09-15 21:55:00,43.7,41.8,30.07,NW,320,5.0,7.0,93,0.00,,---,0.18,VWS V14.01,2013-09-16 03:55:00,
2013-09-15 22:00:00,43.4,41.5,30.07,NW,320,4.0,6.0,93,0.00,,---,0.18,VWS V14.01,2013-09-16 04:00:00,
2013-09-15 22:01:00,43.3,41.4,30.07,NW,320,4.0,5.0,93,0.00,,---,0.18,VWS V14.01,2013-09-16 04:01:00,
2013-09-15 22:02:00,43.3,41.4,30.07,NW,320,4.0,5.0,93,0.00,,---,0.18,VWS V14.01,2013-09-16 04:02:00,
2013-09-15 22:07:00,43.2,41.6,30.07,NW,320,1.0,2.0,94,0.00,,---,0.18,VWS V14.01,2013-09-16 04:07:00,
2013-09-15 22:12:00,43.1,41.5,30.07,NW,320,0.0,0.0,94,0.00,,---,0.18,VWS V14.01,2013-09-16 04:12:00,
2013-09-15 22:17:00,43.2,41.6,30.07,NW,320,0.0,0.0,94,0.00,,---,0.18,VWS V14.01,2013-09-16 04:17:00,
2013-09-15 22:22:00,43.2,41.6,30.07,NW,320,0.0,1.0,94,0.00,,---,0.18,VWS V14.01,2013-09-16 04:22:00,
2013-09-15 22:27:00,42.9,41.0,30.07,NW,320,3.0,3.0,93,0.00,,---,0.18,VWS V14.01,2013-09-16 04:27:00,
2013-09-15 22:32:00,42.8,41.2,30.07,NW,320,4.0,4.0,94,0.00,,---,0.18,VWS V14.01,2013-09-16 04:32:00,
2013-09-15 22:37:00,42.8,40.9,30.07,NW,320,4.0,4.0,93,0.00,,---,0.18,VWS V14.01,2013-09-16 04:37:00,
2013-09-15 22:42:00,42.7,41.1,30.08,NW,320,3.0,3.0,94,0.00,,---,0.18,VWS V14.01,2013-09-16 04:42:00,
2013-09-15 22:47:00,42.6,40.7,30.08,NW,320,0.0,0.0,93,0.00,,---,0.18,VWS V14.01,2013-09-16 04:47:00,
2013-09-15 22:52:00,42.4,40.5,30.08,NW,320,0.0,0.0,93,0.00,,---,0.18,VWS V14.01,2013-09-16 04:52:00,
2013-09-15 22:57:00,42.2,40.3,30.08,NW,320,2.0,2.0,93,0.00,,---,0.18,VWS V14.01,2013-09-16 04:57:00,
2013-09-15 23:02:00,42.1,40.2,30.09,NW,320,0.0,0.0,93,0.00,,---,0.18,VWS V14.01,2013-09-16 05:02:00,
2013-09-15 23:07:00,42.0,40.4,30.09,NW,320,2.0,3.0,94,0.00,,---,0.18,VWS V14.01,2013-09-16 05:07:00,
2013-09-15 23:12:00,41.9,40.0,30.09,NW,320,3.0,3.0,93,0.00,,---,0.18,VWS V14.01,2013-09-16 05:12:00,
2013-09-15 23:17:00,41.8,40.2,30.09,NW,320,4.0,4.0,94,0.00,,---,0.18,VWS V14.01,2013-09-16 05:17:00,
2013-09-15 23:22:00,41.4,39.5,30.09,NW,320,4.0,4.0,93,0.00,,---,0.18,VWS V14.01,2013-09-16 05:22:00,
2013-09-15 23:27:00,41.1,39.5,30.09,NW,320,4.0,4.0,94,0.00,,---,0.18,VWS V14.01,2013-09-16 05:27:00,
2013-09-15 23:32:00,41.1,39.5,30.10,NW,320,0.0,0.0,94,0.00,,---,0.18,VWS V14.01,2013-09-16 05:32:00,
2013-09-15 23:37:00,41.1,39.5,30.10,NW,320,4.0,4.0,94,0.00,,---,0.18,VWS V14.01,2013-09-16 05:37:00,
2013-09-15 23:42:00,41.2,39.6,30.10,NW,320,3.0,3.0,94,0.00,,---,0.18,VWS V14.01,2013-09-16 05:42:00,
2013-09-15 23:47:00,41.5,40.2,30.10,NW,320,0.0,0.0,95,0.00,,---,0.18,VWS V14.01,2013-09-16 05:47:00,
2013-09-15 23:52:00,41.8,40.5,30.10,NW,320,0.0,0.0,95,0.00,,---,0.18,VWS V14.01,2013-09-16 05:52:00,
2013-09-15 23:57:00,41.8,40.5,30.10,NW,320,0.0,0.0,95,0.00,,---,0.18,VWS V14.01,2013-09-16 05:57:00,